Flight Track Log - Related Links

Times and Time Zones

All times are in EDT time to prevent confusion due to time zone crossing. See the N555FW flight status page for this flight to view local times or setup timezone preferences in your user account.

Time Position Orientation Groundspeed Altitude Reporting Facility
EDT Latitude Longitude Course Direction KTS MPH feet Rate Location/Type
Tue 04:31:07 PM 31.8219 -106.3706 60° Northeast 143 165 4,600  Level Albuquerque Center
Tue 04:32:06 PM 31.8408 -106.3328 60° Northeast 148 170 6,100 1,550 Climbing Albuquerque Center
Tue 04:33:07 PM 31.8439 -106.2825 86° East 154 177 7,700 1,672 Climbing Albuquerque Center
Tue 04:34:08 PM 31.8531 -106.2250 79° East 158 182 9,500 1,525 Climbing Albuquerque Center
Tue 04:35:09 PM 31.8608 -106.1731 80° East 165 190 10,800 1,248 Climbing Albuquerque Center
Tue 04:36:13 PM 31.8664 -106.1264 82° East 166 191 12,100 1,571 Climbing Albuquerque Center
Tue 04:37:15 PM 31.8756 -106.0628 80° East 165 190 14,100 1,610 Climbing Albuquerque Center
Tue 04:38:16 PM 31.8833 -106.0106 80° East 163 188 15,400 1,366 Climbing Albuquerque Center
Tue 04:39:18 PM 31.8917 -105.9581 79° East 163 188 16,900 1,161 Climbing Albuquerque Center
Tue 04:40:20 PM 31.8981 -105.9075 82° East 158 182 17,800 968 Climbing Albuquerque Center
Tue 04:41:22 PM 31.9061 -105.8514 80° East 171 197 18,900 1,073 Climbing Albuquerque Center
Tue 04:42:23 PM 31.9144 -105.7950 80° East 175 201 20,000 976 Climbing Albuquerque Center
Tue 04:43:25 PM 31.9219 -105.7408 81° East 169 194 20,900 484 Climbing Albuquerque Center
Tue 04:44:27 PM 31.9331 -105.6628 80° East 208 239 21,000 48 Climbing Albuquerque Center
Tue 04:45:29 PM 31.9428 -105.5914 81° East 220 253 21,000  Level Albuquerque Center
Tue 04:46:31 PM 31.9528 -105.5186 81° East 224 258 21,000  Level Albuquerque Center
Tue 04:47:32 PM 31.9633 -105.4447 80° East 228 262 21,000  Level Albuquerque Center
Tue 04:48:34 PM 31.9742 -105.3706 80° East 230 265 21,000  Level Albuquerque Center
Tue 04:49:36 PM 31.9850 -105.2956 80° East 232 267 21,000  Level Albuquerque Center
Tue 04:50:37 PM 31.9944 -105.2219 81° East 230 265 21,000  Level Albuquerque Center
Tue 04:51:39 PM 32.0075 -105.1325 80° East 230 265 21,000  Level Albuquerque Center
Tue 04:52:41 PM 32.0167 -105.0567 82° East 231 266 21,000  Level Albuquerque Center
Tue 04:53:42 PM 32.0278 -104.9819 80° East 231 266 21,000  Level Albuquerque Center
Tue 04:54:44 PM 32.0375 -104.9072 81° East 232 267 21,000  Level Albuquerque Center
Tue 04:55:46 PM 32.0483 -104.8331 80° East 231 266 21,000  Level Albuquerque Center
Tue 04:56:47 PM 32.0581 -104.7575 81° East 232 267 21,000  Level Albuquerque Center
Tue 04:57:49 PM 32.0681 -104.6814 81° East 234 269 21,000  Level Albuquerque Center
Tue 04:58:51 PM 32.0769 -104.6036 82° East 236 272 21,000  Level Albuquerque Center
Tue 04:59:52 PM 32.0900 -104.5128 80° East 235 270 21,000  Level Albuquerque Center
Tue 05:00:54 PM 32.0994 -104.4364 82° East 235 270 21,000  Level Albuquerque Center
Tue 05:01:55 PM 32.1097 -104.3614 81° East 233 268 21,000  Level Albuquerque Center
Tue 05:02:57 PM 32.1192 -104.2858 82° East 232 267 21,000  Level Albuquerque Center
Tue 05:03:59 PM 32.1297 -104.2122 80° East 230 265 21,000  Level Albuquerque Center
Tue 05:05:00 PM 32.1381 -104.1358 83° East 232 267 21,000  Level Albuquerque Center
Tue 05:06:02 PM 32.1481 -104.0603 81° East 232 267 21,000  Level Albuquerque Center
Tue 05:07:04 PM 32.1583 -103.9856 81° East 230 265 21,000  Level Albuquerque Center
Tue 05:08:05 PM 32.1706 -103.8975 81° East 228 262 21,000  Level Albuquerque Center
Tue 05:09:07 PM 32.1794 -103.8211 82° East 232 267 21,000  Level Albuquerque Center
Tue 05:10:09 PM 32.1886 -103.7469 82° East 231 266 21,000  Level Albuquerque Center
Tue 05:11:10 PM 32.1908 -103.6703 88° East 231 266 21,000  Level Albuquerque Center
Tue 05:12:12 PM 32.1933 -103.5933 88° East 234 269 21,000  Level Albuquerque Center
Tue 05:13:14 PM 32.1944 -103.5181 89° East 231 266 21,000  Level Albuquerque Center
Tue 05:14:15 PM 32.1972 -103.4422 88° East 231 266 21,000  Level Albuquerque Center
Tue 05:15:17 PM 32.1989 -103.3506 89° East 233 268 21,000  Level Albuquerque Center
Tue 05:16:19 PM 32.2011 -103.2756 88° East 231 266 21,000  Level Albuquerque Center
Tue 05:17:21 PM 32.2017 -103.1989 89° East 232 267 21,000  Level Albuquerque Center
Tue 05:18:56 PM 32.2044 -103.0794 88° East 233 268 21,000  Level Fort Worth Center
Tue 05:19:56 PM 32.2058 -103.0033 89° East 233 268 21,000  Level Fort Worth Center
Tue 05:20:56 PM 32.2069 -102.9300 89° East 233 268 21,000 -50 Level Fort Worth Center
Tue 05:21:56 PM 32.2083 -102.8514 89° East 233 268 20,900 -450 Descending Fort Worth Center
Tue 05:22:56 PM 32.2117 -102.7731 87° East 233 268 20,100 -650 Descending Fort Worth Center
Tue 05:23:56 PM 32.2131 -102.6897 89° East 238 274 19,600 -450 Descending Fort Worth Center
Tue 05:24:56 PM 32.2144 -102.6064 89° East 244 281 19,200 -303 Descending Fort Worth Center
Tue 05:25:55 PM 32.2158 -102.5231 89° East 249 287 19,000 -100 Descending Fort Worth Center
Tue 05:26:56 PM 32.2169 -102.4419 89° East 249 287 19,000  Level Fort Worth Center
Tue 05:27:56 PM 32.2181 -102.3636 89° East 249 287 19,000  Level Fort Worth Center
Tue 05:28:56 PM 32.2186 -102.2922 89° East 249 287 19,000  Level Fort Worth Center
Tue 05:29:56 PM 32.2217 -102.2139 87° East 244 281 19,000  Level Fort Worth Center
Tue 05:30:56 PM 32.2206 -102.1353 91° East 239 275 19,000  Level Fort Worth Center
Tue 05:31:56 PM 32.2236 -102.0544 87° East 234 269 19,000  Level Fort Worth Center
Tue 05:32:56 PM 32.2244 -101.9758 89° East 234 269 19,000  Level Fort Worth Center
Tue 05:33:56 PM 32.2253 -101.8950 89° East 234 269 19,000  Level Fort Worth Center
Tue 05:34:56 PM 32.2258 -101.8164 90° East 234 269 19,000  Level Fort Worth Center
Tue 05:35:56 PM 32.2286 -101.7356 88° East 234 269 19,000  Level Fort Worth Center
Tue 05:36:56 PM 32.2272 -101.6592 91° East 234 269 19,000  Level Fort Worth Center
Tue 05:37:56 PM 32.2278 -101.5783 90° East 234 269 19,000  Level Fort Worth Center
Tue 05:38:56 PM 32.2303 -101.4975 88° East 234 269 19,000  Level Fort Worth Center
Tue 05:39:56 PM 32.2308 -101.4189 90° East 234 269 19,000  Level Fort Worth Center
Tue 05:40:56 PM 32.2292 -101.3378 91° East 234 269 19,000  Level Fort Worth Center
Tue 05:41:56 PM 32.2319 -101.2494 88° East 234 269 19,000  Level Fort Worth Center
Tue 05:42:56 PM 32.2322 -101.1708 90° East 239 275 19,000  Level Fort Worth Center
Tue 05:43:56 PM 32.2303 -101.0922 92° East 239 275 19,000  Level Fort Worth Center
Tue 05:44:56 PM 32.2325 -101.0136 88° East 233 268 19,000  Level Fort Worth Center
Tue 05:45:56 PM 32.2328 -100.9328 90° East 233 268 19,000  Level Fort Worth Center
Tue 05:46:56 PM 32.2350 -100.8517 88° East 233 268 19,000  Level Fort Worth Center
Tue 05:47:56 PM 32.2331 -100.7706 92° East 233 268 19,000  Level Fort Worth Center
Tue 05:48:56 PM 32.2353 -100.6922 88° East 233 268 19,000  Level Fort Worth Center
Tue 05:49:56 PM 32.2331 -100.6133 92° East 233 268 19,000  Level Fort Worth Center
Tue 05:50:56 PM 32.2331 -100.5350 90° East 233 268 19,000  Level Fort Worth Center
Tue 05:51:56 PM 32.2328 -100.4539 90° East 233 268 19,000  Level Fort Worth Center
Tue 05:52:56 PM 32.2347 -100.3778 88° East 233 268 19,000  Level Fort Worth Center
Tue 05:53:56 PM 32.2344 -100.2992 90° East 233 268 19,000  Level Fort Worth Center
Tue 05:54:56 PM 32.2342 -100.2181 90° East 233 268 19,000  Level Fort Worth Center
Tue 05:55:56 PM 32.2339 -100.1394 90° East 233 268 19,000  Level Fort Worth Center
Tue 05:56:56 PM 32.2333 -100.0608 90° East 233 268 19,000  Level Fort Worth Center
Tue 05:57:56 PM 32.2331 -99.9800 90° East 233 268 19,000  Level Fort Worth Center
Tue 05:58:56 PM 32.2344 -99.9014 89° East 233 268 19,000  Level Fort Worth Center
Tue 05:59:56 PM 32.2339 -99.8228 90° East 233 268 19,000  Level Fort Worth Center
Tue 06:00:56 PM 32.2314 -99.7442 92° East 233 268 19,000  Level Fort Worth Center
Tue 06:01:56 PM 32.2328 -99.6656 89° East 233 268 19,000  Level Fort Worth Center
Tue 06:02:56 PM 32.2425 -99.5872 82° East 233 268 19,000  Level Fort Worth Center
Tue 06:03:56 PM 32.2522 -99.5089 82° East 233 268 19,000  Level Fort Worth Center
Tue 06:04:56 PM 32.2639 -99.4306 80° East 233 268 19,000  Level Fort Worth Center
Tue 06:05:56 PM 32.2733 -99.3544 82° East 233 268 19,000  Level Fort Worth Center
Tue 06:06:56 PM 32.2831 -99.2761 82° East 233 268 19,000  Level Fort Worth Center
Tue 06:07:56 PM 32.2944 -99.2000 80° East 233 268 19,000  Level Fort Worth Center
Tue 06:08:56 PM 32.3019 -99.1217 84° East 238 274 19,000  Level Fort Worth Center
Tue 06:09:56 PM 32.3114 -99.0431 82° East 238 274 19,000  Level Fort Worth Center
Tue 06:10:56 PM 32.3228 -98.9672 80° East 238 274 19,000 -150 Level Fort Worth Center
Tue 06:11:56 PM 32.3319 -98.8886 82° East 238 274 18,700 -650 Descending Fort Worth Center
Tue 06:12:56 PM 32.3433 -98.8028 81° East 249 287 17,700 -950 Descending Fort Worth Center
Tue 06:13:56 PM 32.3525 -98.7267 82° East 254 292 16,800 -900 Descending Fort Worth Center
Tue 06:14:56 PM 32.3619 -98.6383 83° East 260 299 15,900 -950 Descending Fort Worth Center
Tue 06:15:56 PM 32.3753 -98.5475 80° East 265 305 14,900 -1,000 Descending Fort Worth Center
Tue 06:16:56 PM 32.3822 -98.4589 85° East 271 312 13,900 -1,000 Descending Fort Worth Center
Tue 06:17:56 PM 32.3975 -98.3731 78° East 271 312 12,900 -1,000 Descending Fort Worth Center
Tue 06:18:56 PM 32.4067 -98.2819 83° East 276 318 11,900 -1,100 Descending Fort Worth Center
Tue 06:19:56 PM 32.4197 -98.1961 80° East 276 318 10,700 -1,200 Descending Fort Worth Center
Tue 06:20:56 PM 32.4264 -98.1075 85° East 276 318 9,500 -1,200 Descending Fort Worth Center
Tue 06:21:56 PM 32.4353 -98.0164 83° East 276 318 8,300 -1,250 Descending Fort Worth Center
Tue 06:22:56 PM 32.4461 -97.9256 82° East 276 318 7,000 -1,250 Descending Fort Worth Center
Tue 06:23:56 PM 32.4547 -97.8394 83° East 276 318 5,800 -1,100 Descending Fort Worth Center
Tue 06:24:56 PM 32.4697 -97.7581 78° East 271 312 4,800 -850 Descending Fort Worth Center
Tue 06:25:56 PM 32.5136 -97.6942 51° Northeast 240 276 4,100 -400 Descending Fort Worth Center
Tue 06:26:56 PM 32.5533 -97.6353 51° Northeast 234 269 4,000  Descending Fort Worth Center
Tue 06:27:56 PM 32.5911 -97.5736 54° Northeast 229 264 4,100  Climbing Fort Worth Center
Tue 06:28:56 PM 32.6308 -97.5169 50° Northeast 229 264 4,000 -450 Descending Fort Worth Center
Tue 06:29:56 PM 32.6706 -97.4578 51° Northeast 223 257 3,200 -750 Descending Fort Worth Center
Tue 06:30:56 PM 32.7103 -97.4086 46° Northeast 223 257 2,500 -700 Descending Fort Worth Center
Tue 06:31:56 PM 32.7497 -97.3664 42° Northeast 199 229 1,800 -650 Descending Fort Worth Center
Tue 06:32:56 PM 32.7875 -97.3567 12° North 173 199 1,200 -450 Descending Fort Worth Center
Tue 06:33:56 PM 32.8272 -97.3467 12° North 142 163 900 8,900 Descending Fort Worth Center
Tue 06:34:56 PM 32.8625 -97.3342 17° North 142 163 19,000 9,050 Climbing Fort Worth Center
Tue 06:35:56 PM 32.9000 -97.3219 15° North 142 163 19,000  Level Fort Worth Center
Tue 06:36:56 PM 32.9356 -97.3094 16° North 142 163 19,000  Level Fort Worth Center
Tue 06:37:56 PM 32.9503 -97.3044 16° North 142 163 19,000  Level Fort Worth Center
Tue 06:39:00 PM 32.8859 -97.3264 196° South  Level FlightAware Approximate
Tue 06:46:00 PM 32.8167 -97.3500 199° South  Level FlightAware Approximate
Tue 06:47:00 PM 32.8198 -97.3624 199° South  Level Estimated
Tue 06:48:00 PM 32.8198 -97.3624 199° South  Level Estimated

Login

Don't have an account? Register now (free) for customized features, flight alerts, and more!